Douglas Observed Data For Previous 48 Hours

Caption
Day and Hour Reservoir Elevation (behind dam)* Tailwater Elevation (below dam)* Average Hourly Discharge*
9/20/2018 2 AM EDT 982.82 875.09 13,908
9/20/2018 3 AM EDT 982.81 875.09 13,887
9/20/2018 4 AM EDT 982.78 875.04 13,931
9/20/2018 5 AM EDT 982.77 875.13 13,940
9/20/2018 6 AM EDT 982.75 875.06 13,940
9/20/2018 7 AM EDT 982.74 875.04 13,923
9/20/2018 8 AM EDT 982.72 875.04 13,864
9/20/2018 9 AM EDT 982.71 875.09 13,873
9/20/2018 10 AM EDT 982.69 875.09 13,946
9/20/2018 11 AM EDT 982.67 875.04 13,920
9/20/2018 12 PM EDT 982.65 875.08 13,903
9/20/2018 1 PM EDT 982.63 875.09 13,938
9/20/2018 2 PM EDT 982.60 875.27 14,231
9/20/2018 3 PM EDT 982.57 875.63 16,836
9/20/2018 4 PM EDT 982.52 875.64 16,971
9/20/2018 5 PM EDT 982.50 875.66 16,958
9/20/2018 6 PM EDT 982.45 875.69 16,964
9/20/2018 7 PM EDT 982.42 875.64 16,958
9/20/2018 8 PM EDT 982.41 875.16 14,137
9/20/2018 9 PM EDT 982.39 875.04 13,916
9/20/2018 10 PM EDT 982.36 875.07 13,861
9/20/2018 11 PM EDT 982.34 875.08 13,874
9/21/2018 12 AM EDT 982.33 875.09 13,934
9/21/2018 1 AM EDT 982.30 875.07 13,906
9/21/2018 2 AM EDT 982.30 873.62 9,289
9/21/2018 3 AM EDT 982.29 873.54 9,201
9/21/2018 4 AM EDT 982.30 871.99 4,814
9/21/2018 5 AM EDT 982.31 871.78 4,749
9/21/2018 6 AM EDT 982.31 871.74 4,771
9/21/2018 7 AM EDT 982.32 871.76 4,795
9/21/2018 8 AM EDT 982.31 873.35 9,162
9/21/2018 9 AM EDT 982.30 873.52 9,227
9/21/2018 10 AM EDT 982.28 873.91 9,298
9/21/2018 11 AM EDT 982.26 875.01 13,942
9/21/2018 12 PM EDT 982.21 875.33 14,234
9/21/2018 1 PM EDT 982.19 875.64 16,836
9/21/2018 2 PM EDT 982.16 875.66 16,918
9/21/2018 3 PM EDT 982.11 875.63 16,908
9/21/2018 4 PM EDT 982.07 875.62 16,941
9/21/2018 5 PM EDT 982.04 875.67 16,940
9/21/2018 6 PM EDT 981.99 875.64 16,942
9/21/2018 7 PM EDT 981.95 875.61 16,904
9/21/2018 8 PM EDT 981.92 875.51 15,726
9/21/2018 9 PM EDT 981.89 875.43 15,449
9/21/2018 10 PM EDT 981.85 875.10 13,979
9/21/2018 11 PM EDT 981.85 873.65 9,305
9/22/2018 12 AM EDT 981.85 873.53 9,253
9/22/2018 1 AM EDT 981.83 873.52 9,227
9/22/2018 2 AM EDT 981.84 872.00 4,831
9/22/2018 3 AM EDT 981.86 871.80 4,780
9/22/2018 4 AM EDT 981.87 869.88 100
9/22/2018 5 AM EDT 981.89 869.23 0

Elevations are in feet above sea level. Discharges are in cubic feet per second and are reported at the end of the hour.